sensor_id;sensor_type;location;lat;lon;timestamp;P1;durP1;ratioP1;P2;durP2;ratioP2
38196;SDS011;26543;51.976;4.616;2022-10-15T00:00:49;22.00;;;14.45;;
38196;SDS011;26543;51.976;4.616;2022-10-15T00:03:14;20.75;;;13.50;;
38196;SDS011;26543;51.976;4.616;2022-10-15T00:05:40;18.98;;;13.93;;
38196;SDS011;26543;51.976;4.616;2022-10-15T00:08:06;17.00;;;13.52;;
38196;SDS011;26543;51.976;4.616;2022-10-15T00:10:33;20.17;;;14.55;;
38196;SDS011;26543;51.976;4.616;2022-10-15T00:12:58;21.25;;;15.50;;
38196;SDS011;26543;51.976;4.616;2022-10-15T00:15:24;20.80;;;13.80;;
38196;SDS011;26543;51.976;4.616;2022-10-15T00:17:49;20.10;;;14.48;;
38196;SDS011;26543;51.976;4.616;2022-10-15T00:20:15;22.80;;;14.02;;
38196;SDS011;26543;51.976;4.616;2022-10-15T00:22:40;20.42;;;14.73;;
38196;SDS011;26543;51.976;4.616;2022-10-15T00:25:06;19.23;;;14.57;;
38196;SDS011;26543;51.976;4.616;2022-10-15T00:27:32;24.77;;;16.85;;
38196;SDS011;26543;51.976;4.616;2022-10-15T00:29:58;19.20;;;14.75;;
38196;SDS011;26543;51.976;4.616;2022-10-15T00:32:24;20.17;;;15.48;;
38196;SDS011;26543;51.976;4.616;2022-10-15T00:34:53;21.67;;;15.73;;
38196;SDS011;26543;51.976;4.616;2022-10-15T00:37:18;25.55;;;16.30;;
38196;SDS011;26543;51.976;4.616;2022-10-15T00:39:45;26.42;;;16.38;;
38196;SDS011;26543;51.976;4.616;2022-10-15T00:42:10;22.25;;;14.98;;
38196;SDS011;26543;51.976;4.616;2022-10-15T00:47:05;21.00;;;14.80;;
38196;SDS011;26543;51.976;4.616;2022-10-15T00:49:39;23.10;;;15.98;;
38196;SDS011;26543;51.976;4.616;2022-10-15T00:54:36;18.17;;;14.80;;
38196;SDS011;26543;51.976;4.616;2022-10-15T00:57:06;27.02;;;17.45;;
38196;SDS011;26543;51.976;4.616;2022-10-15T00:59:34;22.42;;;15.55;;
38196;SDS011;26543;51.976;4.616;2022-10-15T01:02:03;21.58;;;15.45;;
38196;SDS011;26543;51.976;4.616;2022-10-15T01:04:30;20.83;;;15.18;;
38196;SDS011;26543;51.976;4.616;2022-10-15T01:06:56;23.88;;;16.63;;
38196;SDS011;26543;51.976;4.616;2022-10-15T01:09:21;23.83;;;15.15;;
38196;SDS011;26543;51.976;4.616;2022-10-15T01:11:48;23.00;;;15.07;;
38196;SDS011;26543;51.976;4.616;2022-10-15T01:16:53;19.40;;;14.05;;
38196;SDS011;26543;51.976;4.616;2022-10-15T01:22:04;19.35;;;14.30;;
38196;SDS011;26543;51.976;4.616;2022-10-15T01:27:31;20.92;;;15.88;;
38196;SDS011;26543;51.976;4.616;2022-10-15T01:35:25;28.65;;;17.80;;
38196;SDS011;26543;51.976;4.616;2022-10-15T01:41:04;21.02;;;15.95;;
38196;SDS011;26543;51.976;4.616;2022-10-15T01:43:37;24.02;;;17.30;;
38196;SDS011;26543;51.976;4.616;2022-10-15T01:46:13;21.23;;;16.52;;
38196;SDS011;26543;51.976;4.616;2022-10-15T01:48:45;23.10;;;17.15;;
38196;SDS011;26543;51.976;4.616;2022-10-15T01:51:12;25.27;;;15.85;;
38196;SDS011;26543;51.976;4.616;2022-10-15T01:53:40;23.20;;;16.10;;
38196;SDS011;26543;51.976;4.616;2022-10-15T01:56:08;22.95;;;16.98;;
38196;SDS011;26543;51.976;4.616;2022-10-15T01:58:42;22.30;;;17.08;;
38196;SDS011;26543;51.976;4.616;2022-10-15T02:01:10;25.05;;;18.05;;
38196;SDS011;26543;51.976;4.616;2022-10-15T02:03:43;22.25;;;16.30;;
38196;SDS011;26543;51.976;4.616;2022-10-15T02:06:35;21.88;;;16.27;;
38196;SDS011;26543;51.976;4.616;2022-10-15T02:11:29;22.00;;;18.58;;
38196;SDS011;26543;51.976;4.616;2022-10-15T02:14:02;21.00;;;16.35;;
38196;SDS011;26543;51.976;4.616;2022-10-15T02:16:38;22.10;;;16.58;;
38196;SDS011;26543;51.976;4.616;2022-10-15T02:19:11;24.65;;;17.10;;
38196;SDS011;26543;51.976;4.616;2022-10-15T02:22:21;21.40;;;17.13;;
38196;SDS011;26543;51.976;4.616;2022-10-15T02:24:55;23.55;;;16.52;;
38196;SDS011;26543;51.976;4.616;2022-10-15T02:27:25;19.98;;;15.98;;
38196;SDS011;26543;51.976;4.616;2022-10-15T02:29:54;27.95;;;18.20;;
38196;SDS011;26543;51.976;4.616;2022-10-15T02:32:21;23.98;;;17.08;;
38196;SDS011;26543;51.976;4.616;2022-10-15T02:34:49;21.52;;;17.30;;
38196;SDS011;26543;51.976;4.616;2022-10-15T02:37:17;22.95;;;16.75;;
38196;SDS011;26543;51.976;4.616;2022-10-15T02:39:45;20.75;;;16.50;;
38196;SDS011;26543;51.976;4.616;2022-10-15T02:42:10;21.80;;;15.55;;
38196;SDS011;26543;51.976;4.616;2022-10-15T02:44:36;26.33;;;16.98;;
38196;SDS011;26543;51.976;4.616;2022-10-15T02:47:01;21.63;;;17.15;;
38196;SDS011;26543;51.976;4.616;2022-10-15T02:49:27;26.33;;;18.48;;
38196;SDS011;26543;51.976;4.616;2022-10-15T02:51:52;24.27;;;17.35;;
38196;SDS011;26543;51.976;4.616;2022-10-15T02:54:18;19.35;;;15.23;;
38196;SDS011;26543;51.976;4.616;2022-10-15T02:56:43;21.15;;;16.48;;
38196;SDS011;26543;51.976;4.616;2022-10-15T02:59:08;27.73;;;19.17;;
38196;SDS011;26543;51.976;4.616;2022-10-15T03:01:34;20.90;;;17.05;;
38196;SDS011;26543;51.976;4.616;2022-10-15T03:03:59;25.40;;;18.50;;
38196;SDS011;26543;51.976;4.616;2022-10-15T03:06:26;20.27;;;15.57;;
38196;SDS011;26543;51.976;4.616;2022-10-15T03:08:51;22.75;;;17.10;;
38196;SDS011;26543;51.976;4.616;2022-10-15T03:11:19;21.92;;;14.93;;
38196;SDS011;26543;51.976;4.616;2022-10-15T03:13:45;23.02;;;16.67;;
38196;SDS011;26543;51.976;4.616;2022-10-15T03:16:10;22.08;;;16.20;;
38196;SDS011;26543;51.976;4.616;2022-10-15T03:18:36;18.13;;;15.35;;
38196;SDS011;26543;51.976;4.616;2022-10-15T03:21:02;21.35;;;15.68;;
38196;SDS011;26543;51.976;4.616;2022-10-15T03:23:28;29.35;;;16.38;;
38196;SDS011;26543;51.976;4.616;2022-10-15T03:25:54;24.92;;;17.42;;
38196;SDS011;26543;51.976;4.616;2022-10-15T03:28:20;26.55;;;17.23;;
38196;SDS011;26543;51.976;4.616;2022-10-15T03:30:46;22.50;;;16.02;;
38196;SDS011;26543;51.976;4.616;2022-10-15T03:33:12;20.85;;;15.63;;
38196;SDS011;26543;51.976;4.616;2022-10-15T03:35:37;26.40;;;16.88;;
38196;SDS011;26543;51.976;4.616;2022-10-15T03:38:03;22.02;;;16.88;;
38196;SDS011;26543;51.976;4.616;2022-10-15T03:40:29;19.73;;;16.15;;
38196;SDS011;26543;51.976;4.616;2022-10-15T03:42:55;24.35;;;18.45;;
38196;SDS011;26543;51.976;4.616;2022-10-15T03:45:23;23.75;;;17.73;;
38196;SDS011;26543;51.976;4.616;2022-10-15T03:47:48;26.50;;;17.23;;
38196;SDS011;26543;51.976;4.616;2022-10-15T03:50:14;25.77;;;19.23;;
38196;SDS011;26543;51.976;4.616;2022-10-15T03:52:40;30.88;;;20.75;;
38196;SDS011;26543;51.976;4.616;2022-10-15T03:55:06;19.60;;;16.83;;
38196;SDS011;26543;51.976;4.616;2022-10-15T03:57:33;24.67;;;19.05;;
38196;SDS011;26543;51.976;4.616;2022-10-15T03:59:58;24.65;;;18.90;;
38196;SDS011;26543;51.976;4.616;2022-10-15T04:02:24;25.08;;;18.50;;
38196;SDS011;26543;51.976;4.616;2022-10-15T04:04:53;27.15;;;19.90;;
38196;SDS011;26543;51.976;4.616;2022-10-15T04:07:19;22.48;;;18.15;;
38196;SDS011;26543;51.976;4.616;2022-10-15T04:09:45;26.73;;;18.35;;
38196;SDS011;26543;51.976;4.616;2022-10-15T04:12:11;31.80;;;20.80;;
38196;SDS011;26543;51.976;4.616;2022-10-15T04:14:36;24.13;;;18.80;;
38196;SDS011;26543;51.976;4.616;2022-10-15T04:17:02;29.10;;;20.48;;
38196;SDS011;26543;51.976;4.616;2022-10-15T04:19:27;27.92;;;20.75;;
38196;SDS011;26543;51.976;4.616;2022-10-15T04:21:53;28.52;;;21.90;;
38196;SDS011;26543;51.976;4.616;2022-10-15T04:24:18;31.25;;;22.20;;
38196;SDS011;26543;51.976;4.616;2022-10-15T04:26:44;29.00;;;20.20;;
38196;SDS011;26543;51.976;4.616;2022-10-15T04:29:09;27.13;;;20.05;;
38196;SDS011;26543;51.976;4.616;2022-10-15T04:31:34;30.02;;;20.15;;
38196;SDS011;26543;51.976;4.616;2022-10-15T04:34:01;26.80;;;19.98;;
38196;SDS011;26543;51.976;4.616;2022-10-15T04:36:27;27.15;;;19.88;;
38196;SDS011;26543;51.976;4.616;2022-10-15T04:38:52;31.73;;;21.58;;
38196;SDS011;26543;51.976;4.616;2022-10-15T04:41:17;26.98;;;21.38;;
38196;SDS011;26543;51.976;4.616;2022-10-15T04:43:43;28.38;;;20.30;;
38196;SDS011;26543;51.976;4.616;2022-10-15T04:46:08;25.75;;;19.02;;
38196;SDS011;26543;51.976;4.616;2022-10-15T04:48:34;31.65;;;20.63;;
38196;SDS011;26543;51.976;4.616;2022-10-15T04:51:04;24.83;;;20.33;;
38196;SDS011;26543;51.976;4.616;2022-10-15T04:53:35;30.55;;;20.95;;
38196;SDS011;26543;51.976;4.616;2022-10-15T04:56:02;24.67;;;18.60;;
38196;SDS011;26543;51.976;4.616;2022-10-15T04:58:29;28.50;;;18.77;;
38196;SDS011;26543;51.976;4.616;2022-10-15T05:00:58;34.08;;;20.77;;
38196;SDS011;26543;51.976;4.616;2022-10-15T05:03:31;23.77;;;17.40;;
38196;SDS011;26543;51.976;4.616;2022-10-15T05:06:04;27.73;;;17.88;;
38196;SDS011;26543;51.976;4.616;2022-10-15T05:08:32;26.67;;;16.23;;
38196;SDS011;26543;51.976;4.616;2022-10-15T05:11:05;27.58;;;18.27;;
38196;SDS011;26543;51.976;4.616;2022-10-15T05:13:32;25.77;;;18.13;;
38196;SDS011;26543;51.976;4.616;2022-10-15T05:16:07;22.98;;;17.30;;
38196;SDS011;26543;51.976;4.616;2022-10-15T05:18:44;23.52;;;16.50;;
38196;SDS011;26543;51.976;4.616;2022-10-15T05:21:10;25.38;;;16.67;;
38196;SDS011;26543;51.976;4.616;2022-10-15T05:23:37;25.52;;;17.27;;
38196;SDS011;26543;51.976;4.616;2022-10-15T05:26:06;27.33;;;17.80;;
38196;SDS011;26543;51.976;4.616;2022-10-15T05:28:34;24.70;;;16.75;;
38196;SDS011;26543;51.976;4.616;2022-10-15T05:31:04;26.50;;;16.70;;
38196;SDS011;26543;51.976;4.616;2022-10-15T05:33:43;25.70;;;17.23;;
38196;SDS011;26543;51.976;4.616;2022-10-15T05:38:34;27.38;;;17.60;;
38196;SDS011;26543;51.976;4.616;2022-10-15T05:40:59;23.98;;;15.60;;
38196;SDS011;26543;51.976;4.616;2022-10-15T05:43:24;24.02;;;16.90;;
38196;SDS011;26543;51.976;4.616;2022-10-15T05:45:53;20.13;;;14.73;;
38196;SDS011;26543;51.976;4.616;2022-10-15T05:48:19;23.17;;;15.73;;
38196;SDS011;26543;51.976;4.616;2022-10-15T05:50:45;25.77;;;15.95;;
38196;SDS011;26543;51.976;4.616;2022-10-15T05:53:10;20.38;;;14.15;;
38196;SDS011;26543;51.976;4.616;2022-10-15T05:55:35;21.95;;;15.27;;
38196;SDS011;26543;51.976;4.616;2022-10-15T05:58:01;19.55;;;14.63;;
38196;SDS011;26543;51.976;4.616;2022-10-15T06:00:27;22.88;;;13.35;;
38196;SDS011;26543;51.976;4.616;2022-10-15T06:02:55;20.83;;;14.75;;
38196;SDS011;26543;51.976;4.616;2022-10-15T06:05:20;17.60;;;12.98;;
38196;SDS011;26543;51.976;4.616;2022-10-15T06:07:45;22.98;;;14.23;;
38196;SDS011;26543;51.976;4.616;2022-10-15T06:10:11;17.92;;;12.23;;
38196;SDS011;26543;51.976;4.616;2022-10-15T06:12:36;20.85;;;12.93;;
38196;SDS011;26543;51.976;4.616;2022-10-15T06:15:03;20.05;;;13.93;;
38196;SDS011;26543;51.976;4.616;2022-10-15T06:17:29;21.05;;;13.30;;
38196;SDS011;26543;51.976;4.616;2022-10-15T06:19:55;17.95;;;12.98;;
38196;SDS011;26543;51.976;4.616;2022-10-15T06:22:20;22.67;;;13.63;;
38196;SDS011;26543;51.976;4.616;2022-10-15T06:24:46;20.40;;;13.02;;
38196;SDS011;26543;51.976;4.616;2022-10-15T06:27:11;19.05;;;11.82;;
38196;SDS011;26543;51.976;4.616;2022-10-15T06:29:38;23.17;;;13.52;;
38196;SDS011;26543;51.976;4.616;2022-10-15T06:32:03;21.85;;;13.35;;
38196;SDS011;26543;51.976;4.616;2022-10-15T06:34:29;20.20;;;13.13;;
38196;SDS011;26543;51.976;4.616;2022-10-15T06:36:57;21.27;;;13.05;;
38196;SDS011;26543;51.976;4.616;2022-10-15T06:39:22;24.27;;;15.48;;
38196;SDS011;26543;51.976;4.616;2022-10-15T06:41:48;27.20;;;15.93;;
38196;SDS011;26543;51.976;4.616;2022-10-15T06:44:16;27.98;;;16.45;;
38196;SDS011;26543;51.976;4.616;2022-10-15T06:46:41;27.95;;;16.50;;
38196;SDS011;26543;51.976;4.616;2022-10-15T06:49:07;33.85;;;18.90;;
38196;SDS011;26543;51.976;4.616;2022-10-15T06:51:32;28.77;;;18.20;;
38196;SDS011;26543;51.976;4.616;2022-10-15T06:53:58;34.70;;;18.38;;
38196;SDS011;26543;51.976;4.616;2022-10-15T06:56:23;27.77;;;17.63;;
38196;SDS011;26543;51.976;4.616;2022-10-15T06:58:49;28.60;;;17.45;;
38196;SDS011;26543;51.976;4.616;2022-10-15T07:01:14;30.27;;;17.52;;
38196;SDS011;26543;51.976;4.616;2022-10-15T07:03:41;28.20;;;15.98;;
38196;SDS011;26543;51.976;4.616;2022-10-15T07:06:07;23.02;;;17.05;;
38196;SDS011;26543;51.976;4.616;2022-10-15T07:08:33;21.58;;;15.93;;
38196;SDS011;26543;51.976;4.616;2022-10-15T07:11:00;25.83;;;16.20;;
38196;SDS011;26543;51.976;4.616;2022-10-15T07:13:27;29.83;;;17.55;;
38196;SDS011;26543;51.976;4.616;2022-10-15T07:15:53;27.27;;;17.13;;
38196;SDS011;26543;51.976;4.616;2022-10-15T07:18:19;31.98;;;18.60;;
38196;SDS011;26543;51.976;4.616;2022-10-15T07:20:45;32.97;;;20.75;;
38196;SDS011;26543;51.976;4.616;2022-10-15T07:23:11;34.25;;;19.98;;
38196;SDS011;26543;51.976;4.616;2022-10-15T07:25:36;40.40;;;21.50;;
38196;SDS011;26543;51.976;4.616;2022-10-15T07:28:02;36.33;;;20.27;;
38196;SDS011;26543;51.976;4.616;2022-10-15T07:30:28;36.45;;;20.63;;
38196;SDS011;26543;51.976;4.616;2022-10-15T07:32:54;41.38;;;22.70;;
38196;SDS011;26543;51.976;4.616;2022-10-15T07:35:21;37.55;;;20.15;;
38196;SDS011;26543;51.976;4.616;2022-10-15T07:37:46;41.40;;;22.50;;
38196;SDS011;26543;51.976;4.616;2022-10-15T07:40:13;39.20;;;22.50;;
38196;SDS011;26543;51.976;4.616;2022-10-15T07:42:38;37.40;;;20.33;;
38196;SDS011;26543;51.976;4.616;2022-10-15T07:45:05;39.25;;;20.90;;
38196;SDS011;26543;51.976;4.616;2022-10-15T07:47:30;33.17;;;19.13;;
38196;SDS011;26543;51.976;4.616;2022-10-15T07:49:56;33.72;;;19.70;;
38196;SDS011;26543;51.976;4.616;2022-10-15T07:52:22;32.17;;;18.83;;
38196;SDS011;26543;51.976;4.616;2022-10-15T07:54:47;32.67;;;18.17;;
38196;SDS011;26543;51.976;4.616;2022-10-15T07:57:12;25.52;;;16.40;;
38196;SDS011;26543;51.976;4.616;2022-10-15T07:59:38;24.95;;;15.15;;
38196;SDS011;26543;51.976;4.616;2022-10-15T08:02:03;27.08;;;15.73;;
38196;SDS011;26543;51.976;4.616;2022-10-15T08:04:28;24.35;;;13.95;;
38196;SDS011;26543;51.976;4.616;2022-10-15T08:06:54;19.83;;;13.55;;
38196;SDS011;26543;51.976;4.616;2022-10-15T08:09:20;19.92;;;13.65;;
38196;SDS011;26543;51.976;4.616;2022-10-15T08:11:45;21.00;;;13.13;;
38196;SDS011;26543;51.976;4.616;2022-10-15T08:14:11;20.42;;;13.38;;
38196;SDS011;26543;51.976;4.616;2022-10-15T08:16:37;21.88;;;13.50;;
38196;SDS011;26543;51.976;4.616;2022-10-15T08:19:02;18.40;;;11.82;;
38196;SDS011;26543;51.976;4.616;2022-10-15T08:21:28;17.70;;;13.18;;
38196;SDS011;26543;51.976;4.616;2022-10-15T08:23:53;16.63;;;12.30;;
38196;SDS011;26543;51.976;4.616;2022-10-15T08:26:18;15.25;;;11.13;;
38196;SDS011;26543;51.976;4.616;2022-10-15T08:28:44;18.50;;;11.52;;
38196;SDS011;26543;51.976;4.616;2022-10-15T08:31:09;16.92;;;11.57;;
38196;SDS011;26543;51.976;4.616;2022-10-15T08:33:35;17.52;;;12.15;;
38196;SDS011;26543;51.976;4.616;2022-10-15T08:36:03;16.73;;;10.77;;
38196;SDS011;26543;51.976;4.616;2022-10-15T08:38:29;15.30;;;10.38;;
38196;SDS011;26543;51.976;4.616;2022-10-15T08:40:56;13.60;;;9.25;;
38196;SDS011;26543;51.976;4.616;2022-10-15T08:43:37;13.07;;;9.02;;
38196;SDS011;26543;51.976;4.616;2022-10-15T08:46:05;14.30;;;9.63;;
38196;SDS011;26543;51.976;4.616;2022-10-15T08:48:36;12.68;;;8.90;;
38196;SDS011;26543;51.976;4.616;2022-10-15T08:51:13;12.07;;;7.82;;
38196;SDS011;26543;51.976;4.616;2022-10-15T08:53:44;11.50;;;8.30;;
38196;SDS011;26543;51.976;4.616;2022-10-15T08:56:38;15.20;;;8.70;;
38196;SDS011;26543;51.976;4.616;2022-10-15T09:02:24;11.10;;;7.20;;
38196;SDS011;26543;51.976;4.616;2022-10-15T09:05:26;10.40;;;6.60;;
38196;SDS011;26543;51.976;4.616;2022-10-15T09:10:36;14.23;;;6.05;;
38196;SDS011;26543;51.976;4.616;2022-10-15T09:13:11;9.63;;;6.88;;
38196;SDS011;26543;51.976;4.616;2022-10-15T09:15:46;9.55;;;6.40;;
38196;SDS011;26543;51.976;4.616;2022-10-15T09:18:20;10.48;;;7.38;;
38196;SDS011;26543;51.976;4.616;2022-10-15T09:20:48;12.32;;;7.82;;
38196;SDS011;26543;51.976;4.616;2022-10-15T09:23:21;14.00;;;7.85;;
38196;SDS011;26543;51.976;4.616;2022-10-15T09:28:40;10.63;;;7.63;;
38196;SDS011;26543;51.976;4.616;2022-10-15T09:31:28;13.73;;;8.45;;
38196;SDS011;26543;51.976;4.616;2022-10-15T09:40:02;9.95;;;7.43;;
38196;SDS011;26543;51.976;4.616;2022-10-15T09:42:52;11.65;;;7.32;;
38196;SDS011;26543;51.976;4.616;2022-10-15T09:45:19;12.45;;;7.22;;
38196;SDS011;26543;51.976;4.616;2022-10-15T09:47:48;11.32;;;7.10;;
38196;SDS011;26543;51.976;4.616;2022-10-15T09:50:14;11.40;;;7.88;;
38196;SDS011;26543;51.976;4.616;2022-10-15T09:53:25;9.43;;;6.32;;
38196;SDS011;26543;51.976;4.616;2022-10-15T09:55:51;10.23;;;6.72;;
38196;SDS011;26543;51.976;4.616;2022-10-15T09:58:36;10.48;;;7.47;;
38196;SDS011;26543;51.976;4.616;2022-10-15T10:01:16;9.48;;;6.50;;
38196;SDS011;26543;51.976;4.616;2022-10-15T10:04:11;9.52;;;7.28;;
38196;SDS011;26543;51.976;4.616;2022-10-15T10:09:15;9.18;;;7.18;;
38196;SDS011;26543;51.976;4.616;2022-10-15T10:14:43;12.10;;;7.70;;
38196;SDS011;26543;51.976;4.616;2022-10-15T10:17:18;14.50;;;7.50;;
38196;SDS011;26543;51.976;4.616;2022-10-15T10:19:45;10.63;;;5.85;;
38196;SDS011;26543;51.976;4.616;2022-10-15T10:22:43;14.98;;;9.23;;
38196;SDS011;26543;51.976;4.616;2022-10-15T10:28:03;11.57;;;7.32;;
38196;SDS011;26543;51.976;4.616;2022-10-15T10:30:36;9.35;;;5.78;;
38196;SDS011;26543;51.976;4.616;2022-10-15T10:33:06;7.32;;;4.13;;
38196;SDS011;26543;51.976;4.616;2022-10-15T10:35:44;7.13;;;5.10;;
38196;SDS011;26543;51.976;4.616;2022-10-15T10:38:18;6.95;;;4.55;;
38196;SDS011;26543;51.976;4.616;2022-10-15T10:40:57;7.43;;;4.90;;
38196;SDS011;26543;51.976;4.616;2022-10-15T10:43:37;6.50;;;4.63;;
38196;SDS011;26543;51.976;4.616;2022-10-15T10:48:49;9.63;;;5.63;;
38196;SDS011;26543;51.976;4.616;2022-10-15T10:51:21;6.82;;;4.25;;
38196;SDS011;26543;51.976;4.616;2022-10-15T10:53:56;7.68;;;4.03;;
38196;SDS011;26543;51.976;4.616;2022-10-15T10:56:29;6.63;;;4.43;;
38196;SDS011;26543;51.976;4.616;2022-10-15T10:59:08;7.90;;;4.53;;
38196;SDS011;26543;51.976;4.616;2022-10-15T11:01:40;8.32;;;4.53;;
38196;SDS011;26543;51.976;4.616;2022-10-15T11:04:11;7.07;;;4.50;;
38196;SDS011;26543;51.976;4.616;2022-10-15T11:09:37;5.30;;;3.47;;
38196;SDS011;26543;51.976;4.616;2022-10-15T11:18:13;7.38;;;4.63;;
38196;SDS011;26543;51.976;4.616;2022-10-15T11:28:28;6.00;;;4.28;;
38196;SDS011;26543;51.976;4.616;2022-10-15T11:39:39;5.85;;;4.63;;
38196;SDS011;26543;51.976;4.616;2022-10-15T11:50:27;6.65;;;5.20;;
38196;SDS011;26543;51.976;4.616;2022-10-15T11:55:38;6.97;;;5.13;;
38196;SDS011;26543;51.976;4.616;2022-10-15T11:58:11;6.82;;;4.97;;
38196;SDS011;26543;51.976;4.616;2022-10-15T12:00:48;7.03;;;4.88;;
38196;SDS011;26543;51.976;4.616;2022-10-15T12:03:18;6.97;;;5.22;;
38196;SDS011;26543;51.976;4.616;2022-10-15T12:08:13;6.70;;;3.83;;
38196;SDS011;26543;51.976;4.616;2022-10-15T12:11:25;6.30;;;4.30;;
38196;SDS011;26543;51.976;4.616;2022-10-15T12:13:39;4.95;;;4.03;;
38196;SDS011;26543;51.976;4.616;2022-10-15T12:21:42;5.75;;;4.35;;
38196;SDS011;26543;51.976;4.616;2022-10-15T12:27:13;6.32;;;4.07;;
38196;SDS011;26543;51.976;4.616;2022-10-15T12:29:41;6.00;;;4.68;;
38196;SDS011;26543;51.976;4.616;2022-10-15T12:32:19;5.10;;;4.05;;
38196;SDS011;26543;51.976;4.616;2022-10-15T12:35:16;6.15;;;3.85;;
38196;SDS011;26543;51.976;4.616;2022-10-15T12:37:45;5.90;;;4.35;;
38196;SDS011;26543;51.976;4.616;2022-10-15T12:40:28;5.82;;;3.85;;
38196;SDS011;26543;51.976;4.616;2022-10-15T12:45:33;4.65;;;3.22;;
38196;SDS011;26543;51.976;4.616;2022-10-15T12:50:33;3.92;;;2.58;;
38196;SDS011;26543;51.976;4.616;2022-10-15T12:53:00;4.25;;;2.90;;
38196;SDS011;26543;51.976;4.616;2022-10-15T12:55:27;6.82;;;2.63;;
38196;SDS011;26543;51.976;4.616;2022-10-15T12:57:54;4.60;;;3.03;;
38196;SDS011;26543;51.976;4.616;2022-10-15T13:02:53;2.92;;;2.08;;
38196;SDS011;26543;51.976;4.616;2022-10-15T13:05:26;3.22;;;2.25;;
38196;SDS011;26543;51.976;4.616;2022-10-15T13:07:53;4.40;;;2.47;;
38196;SDS011;26543;51.976;4.616;2022-10-15T13:10:34;2.90;;;2.22;;
38196;SDS011;26543;51.976;4.616;2022-10-15T13:13:06;3.00;;;1.95;;
38196;SDS011;26543;51.976;4.616;2022-10-15T13:15:37;4.35;;;1.95;;
38196;SDS011;26543;51.976;4.616;2022-10-15T13:18:05;4.35;;;1.40;;
38196;SDS011;26543;51.976;4.616;2022-10-15T13:20:44;2.28;;;1.45;;
38196;SDS011;26543;51.976;4.616;2022-10-15T13:23:24;2.47;;;1.40;;
38196;SDS011;26543;51.976;4.616;2022-10-15T13:25:52;2.67;;;0.95;;
38196;SDS011;26543;51.976;4.616;2022-10-15T13:28:36;1.63;;;0.80;;
38196;SDS011;26543;51.976;4.616;2022-10-15T13:31:05;1.80;;;0.88;;
38196;SDS011;26543;51.976;4.616;2022-10-15T13:33:43;1.45;;;0.70;;
38196;SDS011;26543;51.976;4.616;2022-10-15T13:36:21;1.10;;;0.60;;
38196;SDS011;26543;51.976;4.616;2022-10-15T13:38:55;1.25;;;0.60;;
38196;SDS011;26543;51.976;4.616;2022-10-15T13:41:23;0.85;;;0.55;;
38196;SDS011;26543;51.976;4.616;2022-10-15T13:43:51;0.45;;;0.22;;
38196;SDS011;26543;51.976;4.616;2022-10-15T13:46:19;0.70;;;0.30;;
38196;SDS011;26543;51.976;4.616;2022-10-15T13:48:48;1.52;;;0.38;;
38196;SDS011;26543;51.976;4.616;2022-10-15T13:51:13;3.78;;;0.40;;
38196;SDS011;26543;51.976;4.616;2022-10-15T13:53:39;1.92;;;0.47;;
38196;SDS011;26543;51.976;4.616;2022-10-15T13:58:54;1.42;;;0.38;;
38196;SDS011;26543;51.976;4.616;2022-10-15T14:01:23;0.32;;;0.20;;
38196;SDS011;26543;51.976;4.616;2022-10-15T14:03:49;0.35;;;0.17;;
38196;SDS011;26543;51.976;4.616;2022-10-15T14:08:53;1.75;;;0.40;;
38196;SDS011;26543;51.976;4.616;2022-10-15T14:11:20;3.22;;;0.30;;
38196;SDS011;26543;51.976;4.616;2022-10-15T14:13:47;0.52;;;0.20;;
38196;SDS011;26543;51.976;4.616;2022-10-15T14:16:33;0.70;;;0.30;;
38196;SDS011;26543;51.976;4.616;2022-10-15T14:21:30;2.58;;;0.65;;
38196;SDS011;26543;51.976;4.616;2022-10-15T14:24:05;1.13;;;0.30;;
38196;SDS011;26543;51.976;4.616;2022-10-15T14:26:35;2.38;;;0.43;;
38196;SDS011;26543;51.976;4.616;2022-10-15T14:29:03;2.22;;;0.35;;
38196;SDS011;26543;51.976;4.616;2022-10-15T14:31:35;0.93;;;0.30;;
38196;SDS011;26543;51.976;4.616;2022-10-15T14:34:23;2.25;;;0.40;;
38196;SDS011;26543;51.976;4.616;2022-10-15T14:36:54;1.40;;;0.45;;
38196;SDS011;26543;51.976;4.616;2022-10-15T14:39:26;0.80;;;0.30;;
38196;SDS011;26543;51.976;4.616;2022-10-15T14:41:57;0.95;;;0.38;;
38196;SDS011;26543;51.976;4.616;2022-10-15T14:44:41;0.38;;;0.20;;
38196;SDS011;26543;51.976;4.616;2022-10-15T14:47:09;0.38;;;0.30;;
38196;SDS011;26543;51.976;4.616;2022-10-15T14:49:45;3.20;;;0.68;;
38196;SDS011;26543;51.976;4.616;2022-10-15T14:52:12;1.70;;;0.40;;
38196;SDS011;26543;51.976;4.616;2022-10-15T14:54:42;0.93;;;0.40;;
38196;SDS011;26543;51.976;4.616;2022-10-15T14:57:16;1.15;;;0.50;;
38196;SDS011;26543;51.976;4.616;2022-10-15T14:59:47;0.40;;;0.10;;
38196;SDS011;26543;51.976;4.616;2022-10-15T15:02:17;1.17;;;0.30;;
38196;SDS011;26543;51.976;4.616;2022-10-15T15:04:44;1.08;;;0.22;;
38196;SDS011;26543;51.976;4.616;2022-10-15T15:07:32;1.60;;;0.50;;
38196;SDS011;26543;51.976;4.616;2022-10-15T15:09:57;0.65;;;0.28;;
38196;SDS011;26543;51.976;4.616;2022-10-15T15:12:23;2.47;;;0.50;;
38196;SDS011;26543;51.976;4.616;2022-10-15T15:14:50;1.85;;;0.30;;
38196;SDS011;26543;51.976;4.616;2022-10-15T15:17:18;2.70;;;0.50;;
38196;SDS011;26543;51.976;4.616;2022-10-15T15:22:12;1.98;;;0.55;;
38196;SDS011;26543;51.976;4.616;2022-10-15T15:24:42;1.05;;;0.40;;
38196;SDS011;26543;51.976;4.616;2022-10-15T15:27:20;0.95;;;0.20;;
38196;SDS011;26543;51.976;4.616;2022-10-15T15:32:13;0.65;;;0.30;;
38196;SDS011;26543;51.976;4.616;2022-10-15T15:34:42;0.80;;;0.30;;
38196;SDS011;26543;51.976;4.616;2022-10-15T15:37:14;2.10;;;0.38;;
38196;SDS011;26543;51.976;4.616;2022-10-15T15:39:43;0.47;;;0.22;;
38196;SDS011;26543;51.976;4.616;2022-10-15T15:42:10;0.20;;;0.10;;
38196;SDS011;26543;51.976;4.616;2022-10-15T15:44:38;2.05;;;0.63;;
38196;SDS011;26543;51.976;4.616;2022-10-15T15:47:03;1.85;;;0.40;;
38196;SDS011;26543;51.976;4.616;2022-10-15T15:49:29;1.10;;;0.60;;
38196;SDS011;26543;51.976;4.616;2022-10-15T15:51:54;1.50;;;0.50;;
38196;SDS011;26543;51.976;4.616;2022-10-15T15:54:19;0.80;;;0.30;;
38196;SDS011;26543;51.976;4.616;2022-10-15T15:56:45;1.13;;;0.52;;
38196;SDS011;26543;51.976;4.616;2022-10-15T15:59:10;2.97;;;0.70;;
38196;SDS011;26543;51.976;4.616;2022-10-15T16:01:35;1.38;;;0.70;;
38196;SDS011;26543;51.976;4.616;2022-10-15T16:04:01;1.65;;;0.38;;
38196;SDS011;26543;51.976;4.616;2022-10-15T16:06:26;0.70;;;0.40;;
38196;SDS011;26543;51.976;4.616;2022-10-15T16:08:51;3.63;;;0.77;;
38196;SDS011;26543;51.976;4.616;2022-10-15T16:11:17;1.65;;;0.50;;
38196;SDS011;26543;51.976;4.616;2022-10-15T16:13:42;1.65;;;0.30;;
38196;SDS011;26543;51.976;4.616;2022-10-15T16:16:08;0.88;;;0.50;;
38196;SDS011;26543;51.976;4.616;2022-10-15T16:18:34;4.32;;;0.82;;
38196;SDS011;26543;51.976;4.616;2022-10-15T16:21:02;1.58;;;0.55;;
38196;SDS011;26543;51.976;4.616;2022-10-15T16:23:28;1.48;;;0.45;;
38196;SDS011;26543;51.976;4.616;2022-10-15T16:25:53;1.02;;;0.30;;
38196;SDS011;26543;51.976;4.616;2022-10-15T16:28:21;2.53;;;0.50;;
38196;SDS011;26543;51.976;4.616;2022-10-15T16:30:46;0.93;;;0.50;;
38196;SDS011;26543;51.976;4.616;2022-10-15T16:33:11;2.15;;;0.38;;
38196;SDS011;26543;51.976;4.616;2022-10-15T16:35:37;1.38;;;0.60;;
38196;SDS011;26543;51.976;4.616;2022-10-15T16:38:02;2.97;;;0.82;;
38196;SDS011;26543;51.976;4.616;2022-10-15T16:40:28;1.58;;;0.40;;
38196;SDS011;26543;51.976;4.616;2022-10-15T16:42:53;1.67;;;0.35;;